Time;durP1;ratioP1;P1;durP2;ratioP2;P2;SDS_P1;SDS_P2;PMS_P1;PMS_P2;Temp;Humidity;BMP_temperature;BMP_pressure;BME280_temperature;BME280_humidity;BME280_pressure;Samples;Min_cycle;Max_cycle;Signal;HPM_P1;HPM_P2
2023/05/26 00:01:08;;;;;;;27.90;5.28;;;;;;;;;;5053499;28;20130;-79
2023/05/26 00:03:34;;;;;;;43.08;7.72;;;;;;;;;;5056264;28;20051;-80
2023/05/26 00:06:01;;;;;;;29.73;5.75;;;;;;;;;;5049533;28;20796;-80
2023/05/26 00:08:27;;;;;;;22.52;4.32;;;;;;;;;;5047632;28;20036;-79
2023/05/26 00:10:53;;;;;;;25.13;5.32;;;;;;;;;;5057230;28;20324;-79
2023/05/26 00:13:19;;;;;;;26.38;5.60;;;;;;;;;;5073495;28;20131;-79
2023/05/26 00:15:45;;;;;;;26.48;5.10;;;;;;;;;;5052836;28;20043;-80
2023/05/26 00:18:11;;;;;;;30.23;5.28;;;;;;;;;;5054723;28;20060;-79
2023/05/26 00:20:37;;;;;;;32.20;5.32;;;;;;;;;;5054843;28;20609;-80
2023/05/26 00:23:03;;;;;;;35.58;5.78;;;;;;;;;;5056599;28;20055;-80
2023/05/26 00:25:29;;;;;;;27.55;5.28;;;;;;;;;;5056154;28;20043;-80
2023/05/26 00:27:55;;;;;;;34.88;5.40;;;;;;;;;;5073977;28;20055;-79
2023/05/26 00:30:21;;;;;;;26.60;4.63;;;;;;;;;;5056070;28;20492;-80
2023/05/26 00:32:47;;;;;;;31.65;5.53;;;;;;;;;;5058123;28;20135;-79
2023/05/26 00:35:14;;;;;;;22.90;5.00;;;;;;;;;;5073656;28;20075;-79
2023/05/26 00:37:40;;;;;;;31.55;5.78;;;;;;;;;;5056087;28;20077;-79
2023/05/26 00:40:07;;;;;;;24.73;5.72;;;;;;;;;;5059234;28;20145;-80
2023/05/26 00:42:33;;;;;;;27.83;5.85;;;;;;;;;;5052715;28;20474;-80
2023/05/26 00:44:59;;;;;;;24.17;4.53;;;;;;;;;;5058326;28;20059;-79
2023/05/26 00:47:25;;;;;;;29.63;6.18;;;;;;;;;;5054900;28;20123;-79
2023/05/26 00:49:52;;;;;;;30.85;4.78;;;;;;;;;;5058511;28;20032;-79
2023/05/26 00:52:18;;;;;;;30.27;5.25;;;;;;;;;;5056455;28;20080;-80
2023/05/26 00:54:44;;;;;;;31.65;5.30;;;;;;;;;;5056825;28;20126;-80
2023/05/26 00:57:11;;;;;;;37.30;6.28;;;;;;;;;;5055533;28;20059;-80
2023/05/26 00:59:37;;;;;;;32.90;5.63;;;;;;;;;;5056385;28;20059;-80
2023/05/26 01:02:03;;;;;;;28.55;5.28;;;;;;;;;;5070476;28;20560;-80
2023/05/26 01:04:29;;;;;;;31.23;4.78;;;;;;;;;;5053350;28;20047;-80
2023/05/26 01:06:56;;;;;;;33.55;5.53;;;;;;;;;;5056693;28;20189;-80
2023/05/26 01:09:22;;;;;;;32.42;6.53;;;;;;;;;;5057114;28;20044;-80
2023/05/26 01:11:54;;;;;;;30.63;6.00;;;;;;;;;;5057183;28;20044;-81
2023/05/26 01:14:47;;;;;;;27.08;5.18;;;;;;;;;;5054551;28;20121;-80
2023/05/26 01:17:18;;;;;;;37.63;6.60;;;;;;;;;;5052450;28;20060;-80
2023/05/26 01:20:00;;;;;;;30.40;5.03;;;;;;;;;;5054752;28;20044;-80
2023/05/26 01:22:38;;;;;;;29.10;6.00;;;;;;;;;;5044062;28;20109;-80
2023/05/26 01:25:24;;;;;;;29.92;5.32;;;;;;;;;;5057683;28;20044;-80
2023/05/26 01:27:53;;;;;;;28.15;5.30;;;;;;;;;;5055310;28;20593;-80
2023/05/26 01:30:20;;;;;;;29.55;5.15;;;;;;;;;;5037894;28;20741;-80
2023/05/26 01:32:50;;;;;;;30.75;5.65;;;;;;;;;;5037405;28;20098;-80
2023/05/26 01:35:16;;;;;;;25.88;4.53;;;;;;;;;;5057315;28;20193;-80
2023/05/26 01:37:43;;;;;;;35.33;5.75;;;;;;;;;;5039381;28;20044;-80
2023/05/26 01:40:11;;;;;;;38.53;6.30;;;;;;;;;;5048903;28;20040;-80
2023/05/26 01:42:39;;;;;;;30.85;6.28;;;;;;;;;;5055362;28;20404;-80
2023/05/26 01:45:08;;;;;;;29.73;5.68;;;;;;;;;;5052805;28;20052;-80
2023/05/26 01:47:35;;;;;;;26.75;4.63;;;;;;;;;;5050528;28;20036;-80
2023/05/26 01:50:02;;;;;;;30.10;5.38;;;;;;;;;;5051120;28;20531;-79
2023/05/26 01:52:28;;;;;;;17.80;4.65;;;;;;;;;;5054155;28;20063;-81
2023/05/26 01:55:00;;;;;;;27.00;4.97;;;;;;;;;;5048236;28;20098;-80
2023/05/26 01:57:27;;;;;;;26.10;4.82;;;;;;;;;;5050602;28;20063;-80
2023/05/26 01:59:53;;;;;;;33.15;6.00;;;;;;;;;;5052746;28;20106;-80
2023/05/26 02:02:19;;;;;;;22.50;5.28;;;;;;;;;;5050445;28;20048;-81
2023/05/26 02:04:45;;;;;;;25.50;5.40;;;;;;;;;;5053186;28;20358;-80
2023/05/26 02:07:11;;;;;;;31.65;5.95;;;;;;;;;;5055533;28;20123;-80
2023/05/26 02:09:38;;;;;;;25.85;5.07;;;;;;;;;;5053763;28;20072;-81
2023/05/26 02:12:06;;;;;;;34.30;5.55;;;;;;;;;;5069572;28;20369;-81
2023/05/26 02:14:32;;;;;;;31.77;5.40;;;;;;;;;;5052308;28;20122;-81
2023/05/26 02:16:58;;;;;;;24.92;5.38;;;;;;;;;;5052521;28;20091;-80
2023/05/26 02:19:25;;;;;;;29.42;5.18;;;;;;;;;;5054792;28;20066;-80
2023/05/26 02:21:51;;;;;;;28.10;5.88;;;;;;;;;;5053301;28;20040;-79
2023/05/26 02:24:18;;;;;;;30.98;6.10;;;;;;;;;;5051896;28;20526;-80
2023/05/26 02:26:44;;;;;;;27.45;4.93;;;;;;;;;;5052109;28;20046;-80
2023/05/26 02:29:11;;;;;;;27.17;5.00;;;;;;;;;;5052185;28;20736;-80
2023/05/26 02:31:39;;;;;;;28.58;5.28;;;;;;;;;;5050361;28;20089;-81
2023/05/26 02:34:05;;;;;;;29.95;6.18;;;;;;;;;;5052390;28;20101;-80
2023/05/26 02:36:32;;;;;;;31.08;5.00;;;;;;;;;;5056664;28;20097;-80
2023/05/26 02:38:58;;;;;;;27.50;4.30;;;;;;;;;;5054146;28;20854;-80
2023/05/26 02:41:25;;;;;;;25.17;5.05;;;;;;;;;;5034901;28;20048;-81
2023/05/26 02:43:51;;;;;;;23.05;5.35;;;;;;;;;;5051725;28;20108;-80
2023/05/26 02:46:17;;;;;;;31.23;5.82;;;;;;;;;;5032523;28;20053;-80
2023/05/26 02:48:43;;;;;;;35.97;4.63;;;;;;;;;;5049155;28;20656;-80
2023/05/26 02:51:10;;;;;;;27.63;5.45;;;;;;;;;;5053142;28;20060;-79
2023/05/26 02:53:36;;;;;;;45.22;5.93;;;;;;;;;;5049891;28;20052;-80
2023/05/26 02:56:03;;;;;;;24.75;4.72;;;;;;;;;;5048225;28;20048;-80
2023/05/26 02:58:29;;;;;;;28.75;5.65;;;;;;;;;;5050439;28;20131;-80
2023/05/26 03:00:55;;;;;;;26.63;5.10;;;;;;;;;;5050282;28;20500;-80
2023/05/26 03:03:21;;;;;;;32.47;5.32;;;;;;;;;;5050054;28;20154;-80
2023/05/26 03:05:47;;;;;;;28.10;4.55;;;;;;;;;;5054226;28;20784;-79
2023/05/26 03:08:13;;;;;;;25.63;4.40;;;;;;;;;;5050306;28;20634;-80
2023/05/26 03:10:40;;;;;;;24.88;5.53;;;;;;;;;;5053885;28;20044;-79
2023/05/26 03:13:06;;;;;;;24.58;4.53;;;;;;;;;;5068563;28;20041;-80
2023/05/26 03:15:36;;;;;;;27.02;5.20;;;;;;;;;;5052824;28;20118;-80
2023/05/26 03:18:02;;;;;;;25.08;4.65;;;;;;;;;;5049597;28;20617;-79
2023/05/26 03:20:28;;;;;;;29.15;5.10;;;;;;;;;;5068567;28;20488;-79
2023/05/26 03:22:55;;;;;;;21.33;6.82;;;;;;;;;;5048601;28;20100;-79
2023/05/26 03:25:21;;;;;;;27.80;5.25;;;;;;;;;;5049688;28;20067;-79
2023/05/26 03:27:47;;;;;;;30.67;4.63;;;;;;;;;;5053884;28;21718;-79
2023/05/26 03:30:13;;;;;;;25.95;5.07;;;;;;;;;;5058414;28;20105;-78
2023/05/26 03:32:39;;;;;;;30.65;5.45;;;;;;;;;;5041751;28;20040;-79
2023/05/26 03:35:05;;;;;;;24.00;4.78;;;;;;;;;;5057378;28;20059;-80
2023/05/26 03:37:32;;;;;;;23.70;4.93;;;;;;;;;;5054073;28;20505;-80
2023/05/26 03:39:58;;;;;;;27.98;5.53;;;;;;;;;;5052814;28;20107;-80
2023/05/26 03:42:24;;;;;;;27.60;4.47;;;;;;;;;;5048872;28;20070;-80
2023/05/26 03:44:50;;;;;;;25.10;4.72;;;;;;;;;;5048695;28;20066;-78
2023/05/26 03:47:16;;;;;;;33.15;4.88;;;;;;;;;;5049874;28;20294;-80
2023/05/26 03:49:42;;;;;;;29.48;5.15;;;;;;;;;;5049544;28;20037;-79
2023/05/26 03:52:08;;;;;;;24.95;4.20;;;;;;;;;;5046282;28;20100;-80
2023/05/26 03:54:35;;;;;;;32.65;6.03;;;;;;;;;;5049852;28;20076;-80
2023/05/26 03:57:01;;;;;;;26.77;4.63;;;;;;;;;;5046972;28;20056;-81
2023/05/26 03:59:27;;;;;;;28.27;4.95;;;;;;;;;;5051684;28;20043;-80
2023/05/26 04:01:55;;;;;;;30.85;5.35;;;;;;;;;;5047943;28;20633;-79
2023/05/26 04:04:21;;;;;;;26.33;5.15;;;;;;;;;;5047473;28;20060;-79
2023/05/26 04:06:47;;;;;;;24.35;4.50;;;;;;;;;;5041497;28;20059;-81
2023/05/26 04:09:13;;;;;;;22.67;5.35;;;;;;;;;;5064676;28;20492;-80
2023/05/26 04:11:39;;;;;;;30.83;4.82;;;;;;;;;;5030296;28;20760;-79
2023/05/26 04:14:06;;;;;;;30.42;4.50;;;;;;;;;;5068043;28;20106;-79
2023/05/26 04:16:33;;;;;;;29.23;5.10;;;;;;;;;;5048895;28;20055;-79
2023/05/26 04:18:59;;;;;;;27.58;5.40;;;;;;;;;;5053552;28;20074;-80
2023/05/26 04:21:25;;;;;;;20.58;4.78;;;;;;;;;;5049954;28;20049;-79
2023/05/26 04:23:52;;;;;;;29.52;5.28;;;;;;;;;;5050446;28;20475;-80
2023/05/26 04:26:18;;;;;;;30.02;4.90;;;;;;;;;;5051720;28;20175;-80
2023/05/26 04:28:45;;;;;;;26.42;4.72;;;;;;;;;;5050585;28;20130;-80
2023/05/26 04:31:13;;;;;;;20.02;3.95;;;;;;;;;;5052259;28;20040;-80
2023/05/26 04:33:40;;;;;;;32.28;4.55;;;;;;;;;;5051507;28;20119;-79
2023/05/26 04:36:09;;;;;;;24.70;5.03;;;;;;;;;;5049354;28;20059;-81
2023/05/26 04:38:36;;;;;;;28.15;5.72;;;;;;;;;;5053744;28;20043;-80
2023/05/26 04:41:06;;;;;;;25.08;5.82;;;;;;;;;;5061973;28;21710;-80
2023/05/26 04:43:34;;;;;;;23.52;5.53;;;;;;;;;;5051134;28;20141;-80
2023/05/26 04:46:02;;;;;;;22.02;4.82;;;;;;;;;;5050824;28;20059;-80
2023/05/26 04:48:28;;;;;;;24.88;4.43;;;;;;;;;;5055298;28;20048;-79
2023/05/26 04:50:54;;;;;;;23.17;4.78;;;;;;;;;;5052787;28;21314;-80
2023/05/26 04:53:20;;;;;;;38.97;5.55;;;;;;;;;;5052107;28;20163;-80
2023/05/26 04:55:47;;;;;;;29.83;5.82;;;;;;;;;;5054313;28;20048;-80
2023/05/26 04:58:13;;;;;;;24.15;4.55;;;;;;;;;;5060707;28;20048;-80
2023/05/26 05:00:39;;;;;;;27.52;5.50;;;;;;;;;;5056483;28;20040;-79
2023/05/26 05:03:05;;;;;;;25.35;4.70;;;;;;;;;;5057650;28;20446;-80
2023/05/26 05:05:31;;;;;;;23.52;4.10;;;;;;;;;;5054991;28;20040;-80
2023/05/26 05:07:57;;;;;;;26.00;4.45;;;;;;;;;;5058570;28;20077;-79
2023/05/26 05:10:24;;;;;;;25.83;5.05;;;;;;;;;;5058645;28;20036;-79
2023/05/26 05:12:50;;;;;;;27.08;5.55;;;;;;;;;;5040619;28;20045;-79
2023/05/26 05:15:19;;;;;;;26.27;4.88;;;;;;;;;;5056143;28;20404;-79
2023/05/26 05:17:45;;;;;;;27.52;4.50;;;;;;;;;;5057288;28;20071;-80
2023/05/26 05:20:12;;;;;;;32.05;4.90;;;;;;;;;;5058109;28;20247;-79
2023/05/26 05:22:38;;;;;;;26.65;5.03;;;;;;;;;;5059612;28;20151;-79
2023/05/26 05:25:04;;;;;;;19.33;4.45;;;;;;;;;;5058856;28;20086;-79
2023/05/26 05:27:30;;;;;;;27.17;5.22;;;;;;;;;;5055731;28;20094;-81
2023/05/26 05:29:56;;;;;;;25.63;4.28;;;;;;;;;;5065644;28;20141;-79
2023/05/26 05:32:23;;;;;;;20.67;4.88;;;;;;;;;;5059139;28;20123;-80
2023/05/26 05:34:49;;;;;;;31.08;5.65;;;;;;;;;;5040424;28;20075;-79
2023/05/26 05:37:15;;;;;;;26.13;6.05;;;;;;;;;;5055018;28;20550;-80
2023/05/26 05:39:41;;;;;;;26.33;5.20;;;;;;;;;;5057569;28;20048;-81
2023/05/26 05:42:07;;;;;;;22.08;4.70;;;;;;;;;;5055369;28;20072;-79
2023/05/26 05:44:33;;;;;;;27.35;4.72;;;;;;;;;;5070675;28;20049;-80
2023/05/26 05:46:59;;;;;;;21.15;4.95;;;;;;;;;;5056067;28;20135;-79
2023/05/26 05:49:25;;;;;;;26.90;4.93;;;;;;;;;;5054960;28;20039;-79
2023/05/26 05:51:51;;;;;;;21.27;4.88;;;;;;;;;;5037019;28;20044;-80
2023/05/26 05:54:17;;;;;;;29.95;5.10;;;;;;;;;;5039090;28;20075;-79
2023/05/26 05:56:44;;;;;;;26.27;5.07;;;;;;;;;;5036994;28;20060;-80
2023/05/26 05:59:12;;;;;;;22.30;4.28;;;;;;;;;;5053034;28;20424;-80
2023/05/26 06:01:38;;;;;;;20.00;3.83;;;;;;;;;;5038283;28;20778;-81
2023/05/26 06:04:05;;;;;;;27.40;4.57;;;;;;;;;;5056002;28;20039;-80
2023/05/26 06:06:31;;;;;;;15.75;4.40;;;;;;;;;;5053809;28;20048;-80
2023/05/26 06:08:57;;;;;;;19.90;4.35;;;;;;;;;;5070536;28;20215;-80
2023/05/26 06:11:25;;;;;;;28.95;4.93;;;;;;;;;;5056605;28;20165;-80
2023/05/26 06:13:51;;;;;;;23.45;5.03;;;;;;;;;;5060176;28;20436;-80
2023/05/26 06:16:17;;;;;;;22.33;3.38;;;;;;;;;;5058991;28;20404;-80
2023/05/26 06:18:43;;;;;;;19.48;4.00;;;;;;;;;;5038472;28;20101;-80
2023/05/26 06:21:09;;;;;;;16.33;3.45;;;;;;;;;;5070859;28;20539;-80
2023/05/26 06:23:36;;;;;;;18.33;3.67;;;;;;;;;;5054718;28;20535;-80
2023/05/26 06:26:02;;;;;;;25.98;4.75;;;;;;;;;;5056195;28;20081;-80
2023/05/26 06:28:28;;;;;;;29.83;5.75;;;;;;;;;;5055591;28;20040;-80
2023/05/26 06:30:54;;;;;;;20.73;4.40;;;;;;;;;;5039118;28;20121;-80
2023/05/26 06:33:20;;;;;;;19.30;3.83;;;;;;;;;;5054039;28;21611;-81
2023/05/26 06:35:46;;;;;;;21.73;3.83;;;;;;;;;;5054135;28;20045;-80
2023/05/26 06:38:12;;;;;;;13.98;3.25;;;;;;;;;;5039049;28;20643;-80
2023/05/26 06:40:38;;;;;;;19.13;3.65;;;;;;;;;;5054770;28;20070;-80
2023/05/26 06:43:04;;;;;;;19.85;3.75;;;;;;;;;;5055982;28;20043;-80
2023/05/26 06:45:30;;;;;;;21.50;3.42;;;;;;;;;;5069233;28;20186;-80
2023/05/26 06:47:57;;;;;;;21.52;3.80;;;;;;;;;;5036486;28;20048;-81
2023/05/26 06:50:23;;;;;;;20.33;3.65;;;;;;;;;;5055177;28;20531;-81
2023/05/26 06:52:49;;;;;;;22.33;3.78;;;;;;;;;;5056008;28;20050;-80
2023/05/26 06:55:16;;;;;;;19.23;4.68;;;;;;;;;;5066904;28;20978;-80
2023/05/26 06:57:42;;;;;;;22.55;4.40;;;;;;;;;;5054236;28;20617;-80
2023/05/26 07:00:09;;;;;;;22.02;4.30;;;;;;;;;;5055396;28;20049;-80
2023/05/26 07:02:35;;;;;;;22.50;4.05;;;;;;;;;;5070981;28;20070;-80
2023/05/26 07:05:01;;;;;;;20.40;3.30;;;;;;;;;;5053984;28;20055;-80
2023/05/26 07:07:27;;;;;;;15.45;3.17;;;;;;;;;;5053289;28;20109;-72
2023/05/26 07:09:54;;;;;;;19.40;3.35;;;;;;;;;;5055381;28;20090;-80
2023/05/26 07:12:20;;;;;;;25.65;4.22;;;;;;;;;;5057634;28;20584;-80
2023/05/26 07:14:46;;;;;;;18.10;3.83;;;;;;;;;;5065454;28;20045;-79
2023/05/26 07:17:12;;;;;;;22.67;3.83;;;;;;;;;;5075337;28;20072;-80
2023/05/26 07:19:39;;;;;;;20.77;4.15;;;;;;;;;;5078241;28;20581;-79
2023/05/26 07:22:05;;;;;;;18.35;3.38;;;;;;;;;;5069511;28;20048;-79
2023/05/26 07:24:31;;;;;;;17.15;3.28;;;;;;;;;;5060010;28;20135;-79
2023/05/26 07:26:57;;;;;;;16.60;3.42;;;;;;;;;;5055587;28;20055;-79
2023/05/26 07:29:23;;;;;;;21.30;3.70;;;;;;;;;;5058061;28;20123;-80
2023/05/26 07:31:49;;;;;;;13.35;3.90;;;;;;;;;;5059170;28;20098;-80
2023/05/26 07:34:15;;;;;;;9.48;2.83;;;;;;;;;;5055637;28;20040;-78
2023/05/26 07:36:41;;;;;;;19.85;3.95;;;;;;;;;;5056626;28;20167;-79
2023/05/26 07:39:08;;;;;;;9.85;2.35;;;;;;;;;;5054050;28;20036;-79
2023/05/26 07:41:35;;;;;;;17.85;3.88;;;;;;;;;;5056656;28;20077;-79
2023/05/26 07:44:02;;;;;;;18.73;3.90;;;;;;;;;;5055876;28;20746;-79
2023/05/26 07:46:28;;;;;;;15.13;3.38;;;;;;;;;;5053484;28;20560;-79
2023/05/26 07:48:54;;;;;;;16.25;3.10;;;;;;;;;;5056138;28;20050;-79
2023/05/26 07:51:20;;;;;;;13.60;3.58;;;;;;;;;;5057052;28;21002;-77
2023/05/26 07:53:46;;;;;;;20.63;3.22;;;;;;;;;;5062968;28;20067;-77
2023/05/26 07:56:12;;;;;;;17.60;4.07;;;;;;;;;;5062547;28;20490;-77
2023/05/26 07:58:39;;;;;;;17.60;3.63;;;;;;;;;;5059542;28;20036;-76
2023/05/26 08:01:06;;;;;;;23.05;5.20;;;;;;;;;;5059988;28;20071;-77
2023/05/26 08:03:33;;;;;;;24.00;3.88;;;;;;;;;;5058324;28;20035;-77
2023/05/26 08:05:59;;;;;;;16.15;3.97;;;;;;;;;;5062141;28;20055;-77
2023/05/26 08:08:25;;;;;;;18.90;3.88;;;;;;;;;;5062208;28;20047;-77
2023/05/26 08:10:51;;;;;;;20.02;3.97;;;;;;;;;;5060864;28;20048;-77
2023/05/26 08:13:17;;;;;;;21.83;4.07;;;;;;;;;;5059908;28;20044;-77
2023/05/26 08:15:43;;;;;;;20.90;3.85;;;;;;;;;;5061343;28;21706;-77
2023/05/26 08:18:10;;;;;;;15.25;4.22;;;;;;;;;;5061199;28;20063;-76
2023/05/26 08:20:36;;;;;;;19.05;3.70;;;;;;;;;;5059295;28;20041;-78
2023/05/26 08:23:03;;;;;;;23.48;3.47;;;;;;;;;;5060216;28;20035;-77
2023/05/26 08:25:29;;;;;;;14.40;3.67;;;;;;;;;;5061175;28;20051;-76
2023/05/26 08:27:55;;;;;;;18.92;3.67;;;;;;;;;;5062969;28;20533;-76
2023/05/26 08:30:21;;;;;;;15.23;4.32;;;;;;;;;;5062684;28;20033;-77
2023/05/26 08:32:48;;;;;;;21.17;4.30;;;;;;;;;;5060202;28;20036;-77
2023/05/26 08:35:14;;;;;;;23.08;4.53;;;;;;;;;;5060462;28;20388;-77
2023/05/26 08:37:40;;;;;;;29.95;4.50;;;;;;;;;;5054479;28;20052;-77
2023/05/26 08:40:06;;;;;;;17.67;4.13;;;;;;;;;;5063265;28;20051;-77
2023/05/26 08:42:41;;;;;;;17.65;3.72;;;;;;;;;;5064437;28;20066;-77
2023/05/26 08:45:08;;;;;;;19.10;3.55;;;;;;;;;;5062657;28;20051;-77
2023/05/26 08:47:35;;;;;;;19.90;4.22;;;;;;;;;;5047203;28;20387;-77
2023/05/26 08:50:03;;;;;;;20.58;3.75;;;;;;;;;;5062700;28;20420;-77
2023/05/26 08:52:29;;;;;;;18.23;3.65;;;;;;;;;;5059935;28;20106;-77
2023/05/26 08:54:56;;;;;;;30.20;4.63;;;;;;;;;;5075564;27;20044;-77
2023/05/26 08:57:22;;;;;;;18.65;3.85;;;;;;;;;;5058217;28;20052;-77
2023/05/26 08:59:49;;;;;;;25.13;4.38;;;;;;;;;;5078680;28;20035;-77
2023/05/26 09:02:15;;;;;;;16.40;3.53;;;;;;;;;;5061882;28;20405;-77
2023/05/26 09:04:42;;;;;;;12.35;3.50;;;;;;;;;;5076676;28;20052;-77
2023/05/26 09:07:08;;;;;;;17.30;3.38;;;;;;;;;;5062406;28;20059;-77
2023/05/26 09:09:35;;;;;;;19.13;3.28;;;;;;;;;;5061245;28;20036;-77
2023/05/26 09:12:01;;;;;;;19.70;3.72;;;;;;;;;;5044264;28;20066;-77
2023/05/26 09:14:27;;;;;;;15.80;3.25;;;;;;;;;;5058093;28;20077;-77
2023/05/26 09:16:58;;;;;;;17.17;4.05;;;;;;;;;;5056656;28;20747;-77
2023/05/26 09:19:26;;;;;;;17.10;3.80;;;;;;;;;;5059267;28;20036;-79
2023/05/26 09:21:53;;;;;;;20.33;3.80;;;;;;;;;;5042091;28;20674;-80
2023/05/26 09:24:20;;;;;;;22.65;4.32;;;;;;;;;;5060173;28;20040;-79
2023/05/26 09:26:47;;;;;;;13.32;3.75;;;;;;;;;;5060141;28;20037;-80
2023/05/26 09:29:14;;;;;;;16.33;3.47;;;;;;;;;;5060149;28;20703;-80
2023/05/26 09:31:40;;;;;;;13.13;3.30;;;;;;;;;;5058926;28;20044;-79
2023/05/26 09:34:07;;;;;;;19.77;3.42;;;;;;;;;;5062874;28;20148;-80
2023/05/26 09:36:37;;;;;;;19.10;3.70;;;;;;;;;;5061217;28;20052;-80
2023/05/26 09:39:05;;;;;;;16.08;4.32;;;;;;;;;;5060401;28;20488;-80
2023/05/26 09:41:44;;;;;;;27.92;4.47;;;;;;;;;;5061784;28;20040;-80
2023/05/26 09:44:15;;;;;;;18.00;4.53;;;;;;;;;;5061040;28;20143;-80
2023/05/26 09:46:41;;;;;;;23.58;4.20;;;;;;;;;;5058869;28;20481;-80
2023/05/26 09:49:08;;;;;;;15.13;3.88;;;;;;;;;;5057975;28;20243;-80
2023/05/26 09:51:35;;;;;;;17.95;4.10;;;;;;;;;;5059443;28;20556;-80
2023/05/26 09:54:01;;;;;;;17.85;3.67;;;;;;;;;;5074824;28;20047;-80
2023/05/26 09:56:29;;;;;;;17.15;4.03;;;;;;;;;;5072457;27;20507;-80
2023/05/26 09:58:57;;;;;;;15.73;3.63;;;;;;;;;;5055612;28;21217;-80
2023/05/26 10:01:24;;;;;;;14.10;3.13;;;;;;;;;;5057268;28;20047;-80
2023/05/26 10:03:51;;;;;;;17.30;3.78;;;;;;;;;;5056413;28;20048;-80
2023/05/26 10:06:19;;;;;;;16.85;3.67;;;;;;;;;;5053741;28;21314;-80
2023/05/26 10:08:47;;;;;;;20.75;4.18;;;;;;;;;;5060250;28;20051;-80
2023/05/26 10:11:14;;;;;;;17.67;3.35;;;;;;;;;;5073275;28;20047;-80
2023/05/26 10:13:40;;;;;;;18.70;4.13;;;;;;;;;;5056356;28;21708;-80
2023/05/26 10:16:07;;;;;;;16.95;3.67;;;;;;;;;;5056867;28;20056;-80
2023/05/26 10:18:33;;;;;;;16.25;4.38;;;;;;;;;;5054026;28;20051;-80
2023/05/26 10:21:03;;;;;;;22.02;4.57;;;;;;;;;;5054776;28;20051;-80
2023/05/26 10:23:32;;;;;;;21.35;4.00;;;;;;;;;;5055766;28;20133;-80
2023/05/26 10:26:01;;;;;;;15.48;3.47;;;;;;;;;;5052551;28;21006;-81
2023/05/26 10:28:30;;;;;;;22.30;4.72;;;;;;;;;;5071928;27;20086;-79
2023/05/26 10:31:00;;;;;;;17.58;3.40;;;;;;;;;;5069182;28;20040;-81
2023/05/26 10:33:45;;;;;;;12.15;3.25;;;;;;;;;;5056859;28;20185;-79
2023/05/26 10:36:15;;;;;;;20.55;4.40;;;;;;;;;;5056798;28;20067;-80
2023/05/26 10:38:49;;;;;;;17.70;4.53;;;;;;;;;;5054515;28;20044;-80
2023/05/26 10:41:51;;;;;;;19.85;3.90;;;;;;;;;;5054093;28;20563;-81
2023/05/26 10:44:36;;;;;;;22.20;4.10;;;;;;;;;;5002897;28;20128;-80
2023/05/26 10:47:03;;;;;;;19.00;4.40;;;;;;;;;;5049195;28;20341;-80
2023/05/26 10:49:33;;;;;;;22.05;4.70;;;;;;;;;;5055246;28;20261;-80
2023/05/26 10:52:07;;;;;;;21.80;4.70;;;;;;;;;;5055530;28;20066;-81
2023/05/26 10:54:33;;;;;;;20.48;4.55;;;;;;;;;;5055089;28;20044;-80
2023/05/26 10:56:59;;;;;;;21.90;5.63;;;;;;;;;;5036753;28;20036;-80
2023/05/26 10:59:33;;;;;;;26.50;4.40;;;;;;;;;;5068682;28;21827;-80
2023/05/26 11:02:08;;;;;;;17.77;3.55;;;;;;;;;;5054811;28;20051;-81
2023/05/26 11:04:41;;;;;;;16.75;4.22;;;;;;;;;;5068601;28;20103;-80
2023/05/26 11:07:15;;;;;;;19.77;5.07;;;;;;;;;;5075644;28;20049;-81
2023/05/26 11:09:55;;;;;;;20.58;4.25;;;;;;;;;;5075589;28;20772;-80
2023/05/26 11:12:21;;;;;;;24.42;4.45;;;;;;;;;;5074115;28;21124;-81
2023/05/26 11:14:47;;;;;;;23.45;4.90;;;;;;;;;;5058478;28;20565;-81
2023/05/26 11:17:13;;;;;;;17.17;3.85;;;;;;;;;;5055552;28;20052;-81
2023/05/26 11:19:39;;;;;;;24.00;4.85;;;;;;;;;;5056394;28;20097;-80
2023/05/26 11:22:10;;;;;;;18.70;4.28;;;;;;;;;;5057260;28;20080;-81
2023/05/26 11:24:36;;;;;;;20.15;4.95;;;;;;;;;;5059246;28;20048;-82
2023/05/26 11:27:03;;;;;;;21.70;4.47;;;;;;;;;;5058215;28;20752;-81
2023/05/26 11:29:30;;;;;;;19.73;4.47;;;;;;;;;;5070358;28;20080;-81
2023/05/26 11:31:56;;;;;;;19.88;4.90;;;;;;;;;;5037838;28;20085;-81
2023/05/26 11:34:22;;;;;;;16.85;4.65;;;;;;;;;;5054313;28;20133;-81
2023/05/26 11:36:53;;;;;;;26.08;5.32;;;;;;;;;;5054890;28;20136;-81
2023/05/26 11:39:21;;;;;;;17.33;4.18;;;;;;;;;;5060790;28;20864;-80
2023/05/26 11:41:47;;;;;;;13.45;4.18;;;;;;;;;;5060053;28;20128;-81
2023/05/26 11:44:15;;;;;;;16.33;4.68;;;;;;;;;;5059462;28;20057;-81
2023/05/26 11:46:42;;;;;;;17.42;4.35;;;;;;;;;;5058342;28;20044;-79
2023/05/26 11:49:12;;;;;;;16.73;4.50;;;;;;;;;;5060354;28;20074;-81
2023/05/26 11:51:44;;;;;;;18.35;4.25;;;;;;;;;;5068259;28;20044;-81
2023/05/26 11:54:10;;;;;;;27.77;5.13;;;;;;;;;;5057652;28;20135;-81
2023/05/26 11:56:36;;;;;;;24.30;5.20;;;;;;;;;;5058482;28;20677;-81
2023/05/26 11:59:03;;;;;;;19.63;4.25;;;;;;;;;;5060658;28;20043;-80
2023/05/26 12:01:31;;;;;;;18.70;4.80;;;;;;;;;;5059410;28;22159;-81
2023/05/26 12:03:59;;;;;;;20.80;4.47;;;;;;;;;;5067668;28;20120;-80
2023/05/26 12:06:26;;;;;;;21.40;4.90;;;;;;;;;;5062335;28;20227;-81
2023/05/26 12:08:58;;;;;;;15.75;4.43;;;;;;;;;;5061515;28;20044;-81
2023/05/26 12:11:31;;;;;;;17.33;4.80;;;;;;;;;;5062160;28;20579;-81
2023/05/26 12:14:02;;;;;;;24.73;5.17;;;;;;;;;;5062478;28;20036;-81
2023/05/26 12:16:33;;;;;;;23.83;5.50;;;;;;;;;;5063095;28;20301;-80
2023/05/26 12:19:02;;;;;;;19.73;4.13;;;;;;;;;;5060010;28;20425;-81
2023/05/26 12:21:28;;;;;;;28.10;4.95;;;;;;;;;;5078296;27;20411;-80
2023/05/26 12:23:55;;;;;;;19.35;5.50;;;;;;;;;;5061572;28;20036;-80
2023/05/26 12:26:27;;;;;;;20.48;4.93;;;;;;;;;;5062079;28;21061;-81
2023/05/26 12:29:08;;;;;;;28.65;6.22;;;;;;;;;;5060266;28;20144;-81
2023/05/26 12:31:41;;;;;;;26.30;4.70;;;;;;;;;;5054573;28;20047;-80
2023/05/26 12:34:15;;;;;;;16.75;4.47;;;;;;;;;;5057293;28;20078;-81
2023/05/26 12:36:41;;;;;;;21.10;4.85;;;;;;;;;;5055439;28;20153;-81
2023/05/26 12:39:08;;;;;;;22.38;4.10;;;;;;;;;;5056052;28;20052;-81
2023/05/26 12:41:35;;;;;;;21.38;4.20;;;;;;;;;;5058222;28;20055;-79
2023/05/26 12:44:02;;;;;;;24.33;5.43;;;;;;;;;;5057743;28;20050;-81
2023/05/26 12:46:29;;;;;;;23.50;5.63;;;;;;;;;;5059880;28;20048;-82
2023/05/26 12:48:55;;;;;;;21.90;5.07;;;;;;;;;;5059046;28;20040;-82
2023/05/26 12:51:22;;;;;;;18.40;4.07;;;;;;;;;;5058491;28;20048;-81
2023/05/26 12:53:48;;;;;;;17.25;4.35;;;;;;;;;;5057144;28;20113;-82
2023/05/26 12:56:14;;;;;;;26.15;5.00;;;;;;;;;;5077302;27;20072;-81
2023/05/26 12:58:40;;;;;;;20.65;4.72;;;;;;;;;;5056742;28;20125;-81
2023/05/26 13:01:10;;;;;;;18.95;5.00;;;;;;;;;;5061275;28;20811;-81
2023/05/26 13:03:40;;;;;;;31.45;5.63;;;;;;;;;;5058436;28;20044;-81
2023/05/26 13:06:07;;;;;;;18.23;4.53;;;;;;;;;;5058655;28;20040;-81
2023/05/26 13:08:33;;;;;;;24.45;5.03;;;;;;;;;;5055331;28;21321;-82
2023/05/26 13:11:00;;;;;;;30.98;5.43;;;;;;;;;;5061677;28;20036;-81
2023/05/26 13:13:26;;;;;;;28.38;5.28;;;;;;;;;;5060808;28;20036;-82
2023/05/26 13:15:52;;;;;;;30.30;6.00;;;;;;;;;;5059285;28;20073;-82
2023/05/26 13:18:19;;;;;;;19.10;4.68;;;;;;;;;;5061033;28;20601;-82
2023/05/26 13:20:46;;;;;;;25.65;5.32;;;;;;;;;;5055594;28;20076;-81
2023/05/26 13:23:12;;;;;;;31.73;5.43;;;;;;;;;;5055539;28;20048;-82
2023/05/26 13:25:38;;;;;;;26.08;6.38;;;;;;;;;;5065294;28;20048;-82
2023/05/26 13:28:04;;;;;;;21.70;5.28;;;;;;;;;;5063825;28;20040;-82
2023/05/26 13:30:31;;;;;;;23.40;5.25;;;;;;;;;;5056630;28;20046;-82
2023/05/26 13:32:57;;;;;;;27.15;6.15;;;;;;;;;;5061017;28;20043;-82
2023/05/26 13:35:24;;;;;;;26.23;5.28;;;;;;;;;;5058355;28;20389;-82
2023/05/26 13:37:50;;;;;;;22.80;5.03;;;;;;;;;;5060444;28;20106;-82
2023/05/26 13:40:18;;;;;;;24.50;5.50;;;;;;;;;;5060738;28;20043;-82
2023/05/26 13:42:44;;;;;;;21.77;5.45;;;;;;;;;;5059935;28;20044;-82
2023/05/26 13:45:10;;;;;;;22.88;4.55;;;;;;;;;;5059860;28;20047;-82
2023/05/26 13:47:36;;;;;;;18.90;4.47;;;;;;;;;;5059918;28;20518;-81
2023/05/26 13:50:03;;;;;;;21.73;4.88;;;;;;;;;;5066168;28;20190;-82
2023/05/26 13:52:31;;;;;;;21.48;4.82;;;;;;;;;;5060825;28;20051;-82
2023/05/26 13:54:57;;;;;;;18.70;4.88;;;;;;;;;;5043070;28;20090;-82
2023/05/26 13:57:23;;;;;;;16.35;4.18;;;;;;;;;;5035651;28;20043;-82
2023/05/26 13:59:49;;;;;;;20.13;3.95;;;;;;;;;;5057854;28;20067;-82
2023/05/26 14:02:15;;;;;;;19.73;4.85;;;;;;;;;;5056636;28;20055;-82
2023/05/26 14:04:42;;;;;;;19.05;4.32;;;;;;;;;;5056969;28;20214;-82
2023/05/26 14:07:08;;;;;;;18.63;4.25;;;;;;;;;;5059144;28;20464;-82
2023/05/26 14:09:35;;;;;;;17.95;4.30;;;;;;;;;;5048807;28;20043;-82
2023/05/26 14:12:01;;;;;;;17.15;4.28;;;;;;;;;;5055758;28;20067;-82
2023/05/26 14:14:28;;;;;;;16.35;4.50;;;;;;;;;;5057084;28;20083;-82
2023/05/26 14:16:54;;;;;;;14.57;4.47;;;;;;;;;;5053060;28;20055;-82
2023/05/26 14:19:20;;;;;;;24.77;6.28;;;;;;;;;;5054752;28;20048;-82
2023/05/26 14:21:50;;;;;;;18.73;4.93;;;;;;;;;;5057172;28;20032;-82
2023/05/26 14:24:16;;;;;;;18.95;4.70;;;;;;;;;;5057332;28;20079;-81
2023/05/26 14:26:42;;;;;;;22.33;4.65;;;;;;;;;;5057745;28;20040;-82
2023/05/26 14:29:08;;;;;;;21.33;4.22;;;;;;;;;;5052215;28;20126;-82
2023/05/26 14:31:34;;;;;;;18.00;4.72;;;;;;;;;;5061083;28;20327;-81